Time;durP1;ratioP1;P1;durP2;ratioP2;P2;SDS_P1;SDS_P2;PMS_P1;PMS_P2;Temp;Humidity;BMP_temperature;BMP_pressure;BME280_temperature;BME280_humidity;BME280_pressure;Samples;Min_cycle;Max_cycle;Signal;HPM_P1;HPM_P2
2022/01/12 00:00:03;;;;;;;18.00;12.23;;;22.20;33.30;;;;;;6250875;28;83537;-62
2022/01/12 00:03:10;;;;;;;19.23;11.88;;;22.20;33.10;;;;;;6253717;27;83192;-62
2022/01/12 00:06:11;;;;;;;20.25;12.02;;;22.20;33.30;;;;;;6254876;27;82934;-62
2022/01/12 00:09:11;;;;;;;19.65;12.70;;;22.20;33.00;;;;;;6255139;27;83446;-62
2022/01/12 00:12:12;;;;;;;20.38;12.20;;;22.20;32.90;;;;;;6261918;27;83135;-63
2022/01/12 00:15:12;;;;;;;15.00;10.65;;;22.20;33.10;;;;;;6254598;27;83081;-63
2022/01/12 00:18:13;;;;;;;25.10;13.43;;;22.20;33.20;;;;;;6254975;27;84018;-63
2022/01/12 00:21:13;;;;;;;22.55;12.98;;;22.20;33.10;;;;;;6253706;27;85417;-64
2022/01/12 00:24:14;;;;;;;20.15;11.48;;;22.20;33.30;;;;;;6253969;27;82972;-64
2022/01/12 00:34:01;;;;;;;20.35;11.85;;;22.20;33.50;;;;;;6218167;27;88693;-63
2022/01/12 00:37:01;;;;;;;18.70;11.45;;;22.20;33.30;;;;;;6242940;27;84715;-64
2022/01/12 00:40:02;;;;;;;19.50;11.68;;;22.20;33.80;;;;;;6255025;27;83413;-64
2022/01/12 00:43:02;;;;;;;18.40;11.10;;;22.10;33.60;;;;;;6260861;27;83296;-64
2022/01/12 00:46:03;;;;;;;16.77;10.77;;;22.10;33.60;;;;;;6248709;27;83123;-63
2022/01/12 00:49:03;;;;;;;15.77;10.70;;;22.10;33.80;;;;;;6250124;27;83794;-63
2022/01/12 00:52:04;;;;;;;16.80;10.57;;;22.10;33.40;;;;;;6255827;27;82970;-62
2022/01/12 00:55:06;;;;;;;15.27;10.18;;;22.20;33.80;;;;;;6252359;27;83194;-62
2022/01/12 00:58:07;;;;;;;18.33;10.65;;;22.10;34.10;;;;;;6254762;27;83824;-62
2022/01/12 01:01:07;;;;;;;16.45;10.20;;;22.20;35.30;;;;;;6249263;27;83184;-62
2022/01/12 01:04:08;;;;;;;14.73;9.38;;;22.20;34.60;;;;;;6252300;27;84088;-62
2022/01/12 01:07:10;;;;;;;14.32;9.45;;;22.20;34.50;;;;;;6255033;27;84073;-62
2022/01/12 01:10:14;;;;;;;14.98;9.90;;;22.20;34.90;;;;;;6255793;27;80908;-62
2022/01/12 01:13:15;;;;;;;13.60;9.40;;;22.20;34.70;;;;;;6256375;28;83583;-62
2022/01/12 01:16:22;;;;;;;14.68;9.20;;;22.20;34.30;;;;;;6263611;27;81861;-61
2022/01/12 01:26:02;;;;;;;15.98;9.75;;;22.20;34.70;;;;;;6256628;28;83261;-62
2022/01/12 01:29:03;;;;;;;16.15;9.65;;;22.20;34.50;;;;;;6254254;28;82185;-62
2022/01/12 01:32:06;;;;;;;16.95;9.88;;;22.10;34.20;;;;;;6258559;27;81740;-61
2022/01/12 01:35:07;;;;;;;16.50;10.05;;;22.10;34.00;;;;;;6240779;28;85558;-62
2022/01/12 01:38:07;;;;;;;16.27;9.70;;;22.10;35.00;;;;;;6252879;27;83535;-62
2022/01/12 01:41:08;;;;;;;17.00;9.52;;;22.10;34.20;;;;;;6255004;28;85655;-61
2022/01/12 01:53:58;;;;;;;18.15;10.43;;;22.10;34.70;;;;;;6242436;28;83536;-62
2022/01/12 01:56:59;;;;;;;15.50;9.50;;;22.10;33.90;;;;;;6237882;28;86260;-62
2022/01/12 01:59:59;;;;;;;15.07;9.40;;;22.10;34.40;;;;;;6247369;28;85529;-62
2022/01/12 02:03:01;;;;;;;15.27;9.63;;;22.10;34.30;;;;;;6255378;27;82957;-62
2022/01/12 02:06:11;;;;;;;16.90;10.00;;;22.10;34.30;;;;;;6261770;27;82560;-62
2022/01/12 02:09:12;;;;;;;16.88;10.27;;;22.10;34.20;;;;;;6251454;28;83696;-62
2022/01/12 02:12:22;;;;;;;15.88;9.85;;;22.10;34.20;;;;;;6252167;28;86077;-62
2022/01/12 02:15:25;;;;;;;15.73;9.98;;;22.10;34.50;;;;;;6252142;28;85574;-61
2022/01/12 02:41:04;;;;;;;19.70;11.45;;;22.10;35.30;;;;;;6254387;28;85832;-62
2022/01/12 02:53:39;;;;;;;21.50;12.57;;;22.10;34.60;;;;;;6240397;28;85756;-62
2022/01/12 02:56:40;;;;;;;19.35;12.20;;;22.10;34.90;;;;;;6243410;28;85750;-61
2022/01/12 03:00:04;;;;;;;17.58;10.93;;;22.10;34.50;;;;;;6254362;28;84642;-63
2022/01/12 03:03:03;;;;;;;19.95;11.77;;;22.10;35.00;;;;;;6253697;27;83397;-61
2022/01/12 03:06:07;;;;;;;18.30;10.50;;;22.00;34.70;;;;;;6255631;28;85318;-62
2022/01/12 03:09:08;;;;;;;16.88;9.60;;;22.10;34.80;;;;;;6251899;27;83001;-61
2022/01/12 03:12:08;;;;;;;16.38;9.95;;;22.00;34.40;;;;;;6260685;27;83393;-62
2022/01/12 03:15:09;;;;;;;17.55;10.73;;;22.10;35.10;;;;;;6246522;28;82974;-62
2022/01/12 03:18:10;;;;;;;19.58;10.95;;;22.10;33.90;;;;;;6257099;27;83267;-63
2022/01/12 03:21:10;;;;;;;16.35;10.25;;;22.10;33.50;;;;;;6266240;27;84125;-62
2022/01/12 03:24:12;;;;;;;18.73;11.23;;;22.20;33.10;;;;;;6253740;28;85520;-62
2022/01/12 03:27:14;;;;;;;16.90;10.10;;;22.20;32.90;;;;;;6242189;28;86136;-62
2022/01/12 03:30:15;;;;;;;16.88;10.02;;;22.30;32.60;;;;;;6254088;28;84568;-62
2022/01/12 03:34:04;;;;;;;19.48;11.27;;;22.30;32.50;;;;;;6255776;27;84713;-62
2022/01/12 03:36:53;;;;;;;14.88;9.57;;;22.40;32.40;;;;;;6252673;27;87707;-63
2022/01/12 03:39:54;;;;;;;14.60;9.18;;;22.50;32.30;;;;;;6260108;27;82962;-62
2022/01/12 03:42:54;;;;;;;15.85;8.68;;;22.50;32.30;;;;;;6258272;27;82132;-62
2022/01/12 03:45:55;;;;;;;11.25;8.23;;;22.50;32.10;;;;;;6249477;28;82394;-62
2022/01/12 03:48:55;;;;;;;14.40;8.52;;;22.60;32.20;;;;;;6249631;27;82384;-61
2022/01/12 03:51:57;;;;;;;10.88;6.90;;;22.60;32.10;;;;;;6256916;27;82806;-62
2022/01/12 03:54:57;;;;;;;11.57;7.47;;;22.60;31.80;;;;;;6256651;27;83489;-63
2022/01/12 03:57:58;;;;;;;13.07;7.72;;;22.70;31.80;;;;;;6256269;27;82482;-62
2022/01/12 04:00:59;;;;;;;9.88;6.57;;;22.70;31.80;;;;;;6242316;27;82403;-63
2022/01/12 04:04:02;;;;;;;10.82;6.40;;;22.80;31.90;;;;;;6257300;27;84219;-62
2022/01/12 04:10:23;;;;;;;12.77;7.20;;;22.90;32.30;;;;;;6274069;27;83275;-61
2022/01/12 04:13:25;;;;;;;8.90;5.95;;;22.90;32.40;;;;;;6257125;27;83699;-62
2022/01/12 04:16:25;;;;;;;9.27;6.18;;;22.90;32.30;;;;;;6251876;28;81774;-62
2022/01/12 04:19:27;;;;;;;9.70;6.78;;;22.90;32.40;;;;;;6256687;27;83264;-62
2022/01/12 04:25:47;;;;;;;8.18;5.30;;;22.90;32.20;;;;;;6245533;28;81784;-62
2022/01/12 04:28:47;;;;;;;8.27;5.30;;;22.90;32.20;;;;;;6255574;27;83149;-62
2022/01/12 04:31:49;;;;;;;8.95;5.80;;;22.90;32.20;;;;;;6256169;27;83742;-62
2022/01/12 04:34:49;;;;;;;8.73;5.25;;;22.90;32.20;;;;;;6258381;27;80540;-62
2022/01/12 04:37:50;;;;;;;6.60;4.78;;;22.90;32.00;;;;;;6248989;28;82149;-62
2022/01/12 04:40:51;;;;;;;7.68;5.75;;;22.90;31.90;;;;;;6267442;27;83480;-63
2022/01/12 04:43:52;;;;;;;9.73;6.10;;;23.00;31.70;;;;;;6258784;27;80335;-63
2022/01/12 04:47:04;;;;;;;8.93;5.10;;;23.00;31.70;;;;;;6254293;28;83529;-63
2022/01/12 04:50:05;;;;;;;9.75;6.13;;;23.00;31.90;;;;;;6258088;27;80733;-64
2022/01/12 04:53:05;;;;;;;11.30;5.75;;;23.00;31.90;;;;;;6254192;27;82229;-63
2022/01/12 04:56:06;;;;;;;9.75;5.43;;;23.00;32.10;;;;;;6256203;27;83468;-65
2022/01/12 04:59:07;;;;;;;9.32;5.47;;;23.00;32.10;;;;;;6255758;27;82034;-63
2022/01/12 05:06:25;;;;;;;7.97;5.32;;;23.00;32.10;;;;;;6255564;27;81839;-64
2022/01/12 05:09:09;;;;;;;8.10;5.22;;;23.10;32.60;;;;;;6255387;28;82844;-66
2022/01/12 05:15:35;;;;;;;7.78;5.43;;;23.10;32.80;;;;;;6261223;27;83471;-64
2022/01/12 05:18:36;;;;;;;7.63;5.28;;;23.10;32.60;;;;;;6255933;28;83388;-65
2022/01/12 05:21:37;;;;;;;8.50;5.50;;;23.10;32.40;;;;;;6254949;28;81591;-63
2022/01/12 05:24:37;;;;;;;10.32;5.78;;;23.10;32.30;;;;;;6254443;28;82111;-65
2022/01/12 05:27:38;;;;;;;8.40;4.95;;;23.10;32.60;;;;;;6240662;27;80654;-65
2022/01/12 05:30:38;;;;;;;6.43;4.22;;;23.10;34.10;;;;;;6257268;27;84698;-67
2022/01/12 05:33:45;;;;;;;5.13;3.72;;;23.10;35.10;;;;;;6241055;27;80276;-65
2022/01/12 05:36:46;;;;;;;5.57;3.75;;;23.00;36.00;;;;;;6256356;27;83562;-66
2022/01/12 05:39:46;;;;;;;4.32;3.35;;;23.00;37.30;;;;;;6257989;27;81828;-65
2022/01/12 05:42:49;;;;;;;5.07;3.50;;;23.00;37.90;;;;;;6255692;27;80265;-66
2022/01/12 05:45:50;;;;;;;6.40;3.30;;;23.00;38.10;;;;;;6256327;27;82369;-66
2022/01/12 05:52:19;;;;;;;101.60;48.95;;;23.00;38.90;;;;;;6253628;27;84738;-66
2022/01/12 05:55:20;;;;;;;145.30;69.10;;;22.90;39.10;;;;;;6252733;27;82984;-66
2022/01/12 05:58:21;;;;;;;166.10;86.07;;;22.80;39.20;;;;;;6261987;27;86289;-65
2022/01/12 06:01:21;;;;;;;210.23;98.82;;;22.80;39.60;;;;;;6247956;27;86194;-65
2022/01/12 06:04:24;;;;;;;152.10;72.85;;;22.70;39.60;;;;;;6264858;27;86304;-65
2022/01/12 06:07:25;;;;;;;121.85;61.03;;;22.80;40.50;;;;;;6253854;27;84952;-65
2022/01/12 06:10:26;;;;;;;95.97;46.42;;;22.80;40.50;;;;;;6256757;27;86049;-65
2022/01/12 06:13:28;;;;;;;77.03;38.03;;;22.90;40.20;;;;;;6254169;27;85429;-65
2022/01/12 06:16:29;;;;;;;55.70;27.77;;;22.90;41.10;;;;;;6241031;27;84520;-65
2022/01/12 06:19:30;;;;;;;44.95;23.33;;;22.80;41.10;;;;;;6267016;27;85307;-65
2022/01/12 06:22:46;;;;;;;;;;;22.80;41.30;;;;;;6255845;28;85465;-65
2022/01/12 06:25:47;;;;;;;35.63;17.00;;;22.80;41.40;;;;;;6264563;28;85437;-66
2022/01/12 06:29:04;;;;;;;27.60;15.20;;;22.80;41.30;;;;;;6255359;27;83111;-64
2022/01/12 06:32:04;;;;;;;27.85;13.18;;;22.80;41.70;;;;;;6255580;27;84657;-63
2022/01/12 06:35:05;;;;;;;21.92;11.95;;;22.80;41.20;;;;;;6256611;27;83739;-62
2022/01/12 06:38:05;;;;;;;21.55;11.57;;;22.80;40.90;;;;;;6237711;28;84190;-63
2022/01/12 06:41:06;;;;;;;21.85;9.70;;;22.80;40.90;;;;;;6255724;28;85563;-65
2022/01/12 06:44:07;;;;;;;18.17;8.65;;;22.70;40.90;;;;;;6242182;28;85685;-63
2022/01/12 06:47:08;;;;;;;17.85;8.18;;;22.70;40.60;;;;;;6257092;28;82598;-63
2022/01/12 06:50:08;;;;;;;20.58;9.18;;;22.70;40.70;;;;;;6258717;27;80160;-63
2022/01/12 06:53:09;;;;;;;15.27;7.15;;;22.70;40.70;;;;;;6272128;27;82044;-68
2022/01/12 06:56:09;;;;;;;12.48;6.93;;;22.60;41.40;;;;;;6257879;27;83596;-62
2022/01/12 06:59:15;;;;;;;18.73;9.60;;;22.60;40.50;;;;;;6252318;27;81684;-63
2022/01/12 07:02:16;;;;;;;14.93;8.88;;;22.60;40.20;;;;;;6249107;28;82823;-65
2022/01/12 07:05:17;;;;;;;13.70;8.15;;;22.60;39.40;;;;;;6257353;27;82967;-66
2022/01/12 07:08:18;;;;;;;20.15;9.55;;;22.60;38.30;;;;;;6257791;27;82185;-67
2022/01/12 07:11:20;;;;;;;23.75;9.50;;;22.60;37.80;;;;;;6259373;28;82064;-67
2022/01/12 07:14:23;;;;;;;20.00;9.82;;;22.60;37.40;;;;;;6258210;28;81238;-65
2022/01/12 07:17:24;;;;;;;14.18;8.75;;;22.50;36.60;;;;;;6256926;27;82982;-67
2022/01/12 07:20:24;;;;;;;17.17;9.05;;;22.50;36.40;;;;;;6257286;28;83377;-67
2022/01/12 07:23:25;;;;;;;15.70;9.38;;;22.50;36.00;;;;;;6259246;27;80123;-66
2022/01/12 07:26:25;;;;;;;15.23;9.02;;;22.50;35.60;;;;;;6258776;27;80301;-67
2022/01/12 07:29:26;;;;;;;16.75;9.38;;;22.40;35.10;;;;;;6255503;27;83291;-68
2022/01/12 07:32:26;;;;;;;17.83;9.85;;;22.40;34.70;;;;;;6256915;28;83258;-65
2022/01/12 07:35:27;;;;;;;13.73;7.88;;;22.40;34.40;;;;;;6257951;27;81583;-66
2022/01/12 07:38:27;;;;;;;15.68;8.90;;;22.40;34.00;;;;;;6256539;27;80495;-66
2022/01/12 07:41:29;;;;;;;14.95;8.90;;;22.30;34.00;;;;;;6257293;27;80655;-66
2022/01/12 07:44:30;;;;;;;18.08;9.40;;;22.30;34.00;;;;;;6256067;27;81410;-66
2022/01/12 07:47:30;;;;;;;20.38;9.77;;;22.30;33.90;;;;;;6256418;27;83528;-65
2022/01/12 07:50:31;;;;;;;17.50;9.63;;;22.30;34.00;;;;;;6254906;27;80692;-66
2022/01/12 07:53:31;;;;;;;13.50;9.05;;;22.30;34.00;;;;;;6254732;27;82364;-66
2022/01/12 07:56:32;;;;;;;17.38;8.90;;;22.30;34.20;;;;;;6259739;27;80499;-66
2022/01/12 07:59:32;;;;;;;18.30;8.95;;;22.30;34.10;;;;;;6249749;28;80375;-67
2022/01/12 08:02:33;;;;;;;20.77;9.43;;;22.20;33.70;;;;;;6236623;28;81504;-66
2022/01/12 08:05:33;;;;;;;15.80;8.73;;;22.30;34.90;;;;;;6250128;27;80374;-68
2022/01/12 08:08:34;;;;;;;20.40;9.98;;;22.20;34.20;;;;;;6253123;27;80507;-66
2022/01/12 08:11:34;;;;;;;18.20;9.65;;;22.20;34.20;;;;;;6254752;27;83180;-66
2022/01/12 08:14:35;;;;;;;19.83;9.60;;;22.20;34.10;;;;;;6259597;27;82029;-66
2022/01/12 08:17:35;;;;;;;15.52;9.57;;;22.20;34.00;;;;;;6258838;27;80892;-66
2022/01/12 08:20:36;;;;;;;19.23;10.40;;;22.20;34.00;;;;;;6250762;27;81290;-67
2022/01/12 08:23:36;;;;;;;16.55;10.32;;;22.20;33.70;;;;;;6254649;27;85113;-68
2022/01/12 08:26:37;;;;;;;22.23;10.50;;;22.20;33.60;;;;;;6249451;27;82814;-68
2022/01/12 08:29:37;;;;;;;17.38;9.88;;;22.20;33.50;;;;;;6254540;27;84410;-68
2022/01/12 08:32:38;;;;;;;15.93;10.05;;;22.20;33.60;;;;;;6255157;27;82716;-67
2022/01/12 08:35:38;;;;;;;17.65;9.88;;;22.30;33.40;;;;;;6252761;28;83234;-67
2022/01/12 08:38:39;;;;;;;15.35;9.60;;;22.30;32.50;;;;;;6252742;27;81785;-66
2022/01/12 08:41:39;;;;;;;19.10;9.88;;;22.30;32.10;;;;;;6256677;28;81017;-66
2022/01/12 08:44:40;;;;;;;18.75;10.07;;;22.30;31.90;;;;;;6256915;27;81493;-67
2022/01/12 08:47:40;;;;;;;14.48;9.07;;;22.40;31.40;;;;;;6254884;27;83021;-66
2022/01/12 08:50:41;;;;;;;17.85;9.55;;;22.40;31.40;;;;;;6260301;27;85172;-66
2022/01/12 08:53:41;;;;;;;14.70;9.15;;;22.50;31.40;;;;;;6255027;27;80321;-65
2022/01/12 08:56:42;;;;;;;19.00;10.70;;;22.50;31.00;;;;;;6258814;27;81630;-65
2022/01/12 08:59:44;;;;;;;17.05;10.23;;;22.50;30.70;;;;;;6252918;27;82958;-67
2022/01/12 09:02:44;;;;;;;17.05;9.50;;;22.50;30.70;;;;;;6250806;27;83266;-66
2022/01/12 09:05:45;;;;;;;19.75;9.32;;;22.60;30.70;;;;;;6255334;27;81780;-66
2022/01/12 09:08:45;;;;;;;14.02;8.70;;;22.60;30.70;;;;;;6257401;27;81253;-66
2022/01/12 09:11:46;;;;;;;15.98;9.57;;;22.60;30.70;;;;;;6254753;27;80511;-66
2022/01/12 09:14:46;;;;;;;17.20;10.40;;;22.60;30.60;;;;;;6255766;27;81803;-66
2022/01/12 09:17:47;;;;;;;18.52;9.98;;;22.70;30.50;;;;;;6252279;27;82839;-66
2022/01/12 09:20:49;;;;;;;19.42;10.75;;;22.70;30.60;;;;;;6253512;27;85203;-65
2022/01/12 09:23:50;;;;;;;18.50;10.38;;;22.70;30.50;;;;;;6253042;27;83377;-66
2022/01/12 09:26:50;;;;;;;17.70;9.00;;;22.70;30.30;;;;;;6247951;27;83544;-65
2022/01/12 09:29:51;;;;;;;15.13;9.85;;;22.70;30.30;;;;;;6248860;28;84358;-66
2022/01/12 09:32:51;;;;;;;17.42;11.02;;;22.70;30.20;;;;;;6260808;27;80825;-66
2022/01/12 09:35:53;;;;;;;18.38;10.10;;;22.70;30.00;;;;;;6259892;27;83461;-66
2022/01/12 09:38:54;;;;;;;15.25;8.90;;;22.70;30.10;;;;;;6244311;27;83949;-65
2022/01/12 09:41:54;;;;;;;17.13;10.80;;;22.70;30.10;;;;;;6258629;27;84901;-65
2022/01/12 09:44:55;;;;;;;16.30;10.35;;;22.70;30.00;;;;;;6254853;27;83228;-65
2022/01/12 09:47:55;;;;;;;15.32;9.98;;;22.70;30.00;;;;;;6256765;27;82917;-68
2022/01/12 09:51:01;;;;;;;17.20;11.07;;;22.70;30.00;;;;;;6257771;27;83286;-66
2022/01/12 09:54:01;;;;;;;18.25;11.63;;;22.70;29.80;;;;;;6252865;27;83085;-66
2022/01/12 09:57:02;;;;;;;19.90;12.00;;;22.70;29.80;;;;;;6256629;27;83004;-65
2022/01/12 10:00:02;;;;;;;15.25;10.18;;;22.70;29.80;;;;;;6251671;27;83276;-65
2022/01/12 10:03:12;;;;;;;20.20;11.50;;;22.80;29.70;;;;;;6255110;27;83066;-65
2022/01/12 10:06:13;;;;;;;16.27;11.15;;;22.70;29.80;;;;;;6254937;27;84169;-65
2022/01/12 10:09:14;;;;;;;17.80;11.07;;;22.70;29.60;;;;;;6255763;27;83691;-65
2022/01/12 10:12:14;;;;;;;18.30;10.85;;;22.70;29.70;;;;;;6254441;27;83314;-66
2022/01/12 10:15:16;;;;;;;14.45;9.63;;;22.70;29.60;;;;;;6258564;27;85773;-64
2022/01/12 10:18:18;;;;;;;18.10;10.57;;;22.70;29.50;;;;;;6260637;27;82803;-67
2022/01/12 10:21:18;;;;;;;19.13;10.52;;;22.70;29.40;;;;;;6252230;27;82958;-65
2022/01/12 10:24:20;;;;;;;15.98;10.00;;;22.70;29.30;;;;;;6255156;27;83725;-66
2022/01/12 10:27:23;;;;;;;17.23;11.07;;;22.80;29.30;;;;;;6250353;27;83842;-67
2022/01/12 10:30:23;;;;;;;18.13;10.95;;;22.80;29.30;;;;;;6255659;27;83078;-67
2022/01/12 10:33:24;;;;;;;16.55;10.13;;;22.80;29.30;;;;;;6257974;27;83447;-66
2022/01/12 10:36:24;;;;;;;17.95;11.65;;;22.80;29.10;;;;;;6256325;27;83251;-68
2022/01/12 10:39:26;;;;;;;16.98;10.25;;;22.70;29.20;;;;;;6257740;27;83232;-67
2022/01/12 10:42:26;;;;;;;16.73;11.52;;;22.70;28.90;;;;;;6255225;27;83796;-66
2022/01/12 10:45:27;;;;;;;17.73;11.60;;;22.70;29.10;;;;;;6256984;27;83839;-68
2022/01/12 10:48:27;;;;;;;19.65;11.88;;;22.80;29.20;;;;;;6254127;27;86113;-68
2022/01/12 10:51:28;;;;;;;18.80;11.82;;;22.70;29.20;;;;;;6262090;27;83200;-70
2022/01/12 10:54:28;;;;;;;22.00;12.45;;;22.70;29.80;;;;;;6255011;27;83121;-65
2022/01/12 10:57:29;;;;;;;19.00;12.23;;;22.60;29.30;;;;;;6262403;27;84156;-66
2022/01/12 11:00:30;;;;;;;21.15;13.02;;;22.40;29.00;;;;;;6246012;27;83234;-70
2022/01/12 11:03:30;;;;;;;22.88;12.85;;;22.30;28.40;;;;;;6245088;28;83178;-72
2022/01/12 11:06:31;;;;;;;20.13;12.88;;;22.10;27.80;;;;;;6244384;28;82960;-67
2022/01/12 11:09:31;;;;;;;19.65;13.27;;;22.00;28.30;;;;;;6255336;27;83538;-68
2022/01/12 11:12:35;;;;;;;19.40;12.25;;;22.00;28.60;;;;;;6254977;27;84004;-69
2022/01/12 11:15:35;;;;;;;19.67;12.48;;;22.00;28.50;;;;;;6256775;28;82809;-67
2022/01/12 11:18:36;;;;;;;20.23;12.90;;;22.10;28.60;;;;;;6255970;27;83030;-67
2022/01/12 11:21:37;;;;;;;23.55;12.85;;;22.10;28.40;;;;;;6254877;27;83298;-68
2022/01/12 11:24:37;;;;;;;19.15;12.02;;;22.10;28.70;;;;;;6252821;27;83965;-69
2022/01/12 11:27:38;;;;;;;20.92;12.98;;;22.10;29.00;;;;;;6250304;27;84417;-68
2022/01/12 11:30:39;;;;;;;18.27;11.50;;;22.10;28.80;;;;;;6244569;27;87087;-66
2022/01/12 11:33:42;;;;;;;18.60;12.23;;;22.10;29.20;;;;;;6249946;27;84250;-67
2022/01/12 11:36:43;;;;;;;21.58;13.70;;;22.10;28.90;;;;;;6256231;27;82858;-67
2022/01/12 11:39:44;;;;;;;20.08;12.15;;;22.10;28.90;;;;;;6250751;27;90695;-64
2022/01/12 11:42:44;;;;;;;20.45;12.45;;;22.10;28.90;;;;;;6244068;27;84304;-64
2022/01/12 11:45:45;;;;;;;18.63;12.30;;;22.10;28.90;;;;;;6256294;27;83054;-65
2022/01/12 11:48:46;;;;;;;18.75;11.65;;;22.10;28.90;;;;;;6245240;27;83319;-67
2022/01/12 11:51:46;;;;;;;18.65;11.80;;;22.10;29.20;;;;;;6238975;27;85687;-68
2022/01/12 11:54:47;;;;;;;16.30;10.88;;;22.10;29.40;;;;;;6252120;27;83084;-67
2022/01/12 11:57:48;;;;;;;15.05;10.50;;;22.10;29.70;;;;;;6245324;27;84253;-69
2022/01/12 12:00:48;;;;;;;15.98;11.20;;;22.10;29.70;;;;;;6246566;28;84315;-66
2022/01/12 12:03:49;;;;;;;17.13;11.10;;;22.10;29.90;;;;;;6256105;27;84626;-67
2022/01/12 12:06:50;;;;;;;15.00;10.48;;;22.00;30.00;;;;;;6250818;27;85107;-67
2022/01/12 12:09:53;;;;;;;15.07;10.07;;;22.00;30.20;;;;;;6246461;27;83292;-69
2022/01/12 12:12:53;;;;;;;13.63;9.25;;;22.00;30.30;;;;;;6254381;27;84186;-69
2022/01/12 12:15:54;;;;;;;14.90;9.80;;;22.00;30.50;;;;;;6260227;27;83226;-68
2022/01/12 12:18:54;;;;;;;16.10;8.32;;;22.00;30.70;;;;;;6259352;27;80800;-67
2022/01/12 12:21:55;;;;;;;13.57;8.63;;;22.00;30.50;;;;;;6254384;27;81658;-67
2022/01/12 12:24:55;;;;;;;14.23;8.48;;;22.00;31.10;;;;;;6254402;27;82654;-69
2022/01/12 12:27:56;;;;;;;17.27;9.20;;;22.00;30.60;;;;;;6253928;27;80260;-69
2022/01/12 12:30:56;;;;;;;15.18;8.07;;;21.90;30.40;;;;;;6256385;27;80736;-67
2022/01/12 12:33:57;;;;;;;14.57;8.27;;;21.90;30.50;;;;;;6255400;27;81218;-69
2022/01/12 12:36:57;;;;;;;15.15;9.38;;;21.90;30.30;;;;;;6256983;27;81118;-68
2022/01/12 12:39:58;;;;;;;11.13;7.90;;;21.90;30.30;;;;;;6255037;27;80811;-67
2022/01/12 12:42:58;;;;;;;13.60;8.18;;;21.90;30.80;;;;;;6253999;27;81716;-68
2022/01/12 12:45:59;;;;;;;11.75;8.43;;;21.90;30.60;;;;;;6254599;27;81379;-68
2022/01/12 12:49:00;;;;;;;14.15;8.35;;;21.90;30.70;;;;;;6239088;27;80331;-67
2022/01/12 12:52:00;;;;;;;15.73;10.00;;;21.90;30.70;;;;;;6257188;27;81320;-69
2022/01/12 12:55:01;;;;;;;16.58;9.95;;;21.90;30.90;;;;;;6253728;27;82866;-67
2022/01/12 12:58:02;;;;;;;16.83;10.65;;;21.80;30.90;;;;;;6255610;27;83339;-68
2022/01/12 13:01:02;;;;;;;14.82;9.95;;;21.90;30.80;;;;;;6253368;27;83255;-67
2022/01/12 13:04:03;;;;;;;15.07;10.00;;;21.90;30.90;;;;;;6255057;27;83487;-70
2022/01/12 13:07:03;;;;;;;17.27;10.63;;;21.80;30.90;;;;;;6255626;27;82684;-69
2022/01/12 13:10:04;;;;;;;15.30;10.07;;;21.80;31.20;;;;;;6255063;27;82827;-67
2022/01/12 13:13:04;;;;;;;16.35;10.10;;;21.90;31.20;;;;;;6252146;28;84043;-67
2022/01/12 13:16:08;;;;;;;17.40;10.15;;;21.90;31.10;;;;;;6254506;27;83418;-67
2022/01/12 13:19:21;;;;;;;17.33;10.70;;;21.80;31.10;;;;;;6252512;27;83971;-71
2022/01/12 13:22:21;;;;;;;17.95;10.85;;;21.90;31.10;;;;;;6251414;27;83569;-71
2022/01/12 13:25:22;;;;;;;15.50;10.18;;;21.90;31.10;;;;;;6254702;27;83215;-67
2022/01/12 13:28:22;;;;;;;20.50;11.20;;;21.90;31.00;;;;;;6250512;28;83353;-69
2022/01/12 13:31:23;;;;;;;17.55;10.30;;;21.90;31.10;;;;;;6253578;27;83953;-69
2022/01/12 13:34:30;;;;;;;19.27;11.70;;;21.90;31.10;;;;;;6252083;27;83952;-67
2022/01/12 13:37:31;;;;;;;16.52;10.70;;;21.90;31.10;;;;;;6248948;27;84985;-69
2022/01/12 13:40:31;;;;;;;18.00;10.93;;;21.90;31.10;;;;;;6255035;27;83035;-68
2022/01/12 13:43:32;;;;;;;20.85;11.90;;;21.90;31.20;;;;;;6253933;27;83498;-68
2022/01/12 13:46:32;;;;;;;17.83;11.60;;;21.90;31.10;;;;;;6246907;27;84235;-68
2022/01/12 13:49:33;;;;;;;23.13;11.98;;;21.90;31.50;;;;;;6252482;27;83085;-68
2022/01/12 13:52:33;;;;;;;18.23;11.95;;;21.90;31.50;;;;;;6255154;27;89903;-67
2022/01/12 13:55:34;;;;;;;20.73;11.48;;;21.90;31.60;;;;;;6247907;27;84363;-66
2022/01/12 13:58:38;;;;;;;16.95;11.13;;;21.90;31.80;;;;;;6251718;28;83652;-69
2022/01/12 14:01:38;;;;;;;16.90;10.65;;;21.90;31.80;;;;;;6253531;27;83403;-66
2022/01/12 14:04:42;;;;;;;16.40;10.80;;;21.90;31.80;;;;;;6267521;27;84593;-67
2022/01/12 14:07:58;;;;;;;19.40;11.95;;;21.90;31.70;;;;;;6242710;27;83077;-66
2022/01/12 14:10:58;;;;;;;17.65;11.40;;;21.90;31.60;;;;;;6242951;27;83692;-67
2022/01/12 14:13:59;;;;;;;20.40;11.35;;;21.90;31.60;;;;;;6251757;27;84132;-68
2022/01/12 14:16:59;;;;;;;16.08;11.25;;;21.90;31.40;;;;;;6252479;27;83230;-68
2022/01/12 14:20:00;;;;;;;17.23;11.55;;;21.90;31.50;;;;;;6258035;27;84436;-68
2022/01/12 14:23:01;;;;;;;21.02;11.70;;;21.90;31.60;;;;;;6258193;27;83257;-68
2022/01/12 14:26:01;;;;;;;18.38;11.98;;;21.80;31.30;;;;;;6254036;27;84066;-69
2022/01/12 14:29:02;;;;;;;20.50;12.15;;;21.90;31.20;;;;;;6250695;28;83280;-71
2022/01/12 14:32:02;;;;;;;19.17;12.25;;;21.80;31.00;;;;;;6245240;27;83383;-69
2022/01/12 14:35:03;;;;;;;16.85;11.77;;;21.80;31.00;;;;;;6254108;27;83053;-68
2022/01/12 14:38:03;;;;;;;20.00;12.98;;;21.80;31.00;;;;;;6249667;28;83442;-69
2022/01/12 14:41:04;;;;;;;20.00;12.30;;;21.80;31.00;;;;;;6255098;27;83640;-69
2022/01/12 14:44:04;;;;;;;20.55;13.15;;;21.80;31.90;;;;;;6257025;27;82946;-67
2022/01/12 14:47:05;;;;;;;26.63;13.18;;;21.80;31.50;;;;;;6257394;27;82851;-70
2022/01/12 14:50:05;;;;;;;22.85;14.07;;;21.80;32.70;;;;;;6255391;28;83806;-68
2022/01/12 14:53:06;;;;;;;21.13;13.43;;;21.80;32.90;;;;;;6256343;27;83155;-68
2022/01/12 14:56:06;;;;;;;21.27;13.95;;;21.90;32.00;;;;;;6265391;27;86555;-69
2022/01/12 14:59:07;;;;;;;23.20;13.00;;;21.80;31.80;;;;;;6241501;27;83907;-68
2022/01/12 15:02:07;;;;;;;19.73;12.45;;;21.80;31.80;;;;;;6241233;27;83752;-68
2022/01/12 15:05:08;;;;;;;23.00;13.63;;;21.80;32.20;;;;;;6256313;27;83047;-65
2022/01/12 15:08:08;;;;;;;21.75;11.68;;;21.90;31.50;;;;;;6253969;28;83588;-68
2022/01/12 15:11:10;;;;;;;19.80;13.35;;;21.90;31.40;;;;;;6254851;28;82913;-71
2022/01/12 15:14:24;;;;;;;19.88;12.57;;;21.90;30.60;;;;;;6238737;28;83668;-68
2022/01/12 15:17:24;;;;;;;20.65;12.95;;;22.00;30.50;;;;;;6256853;27;83261;-71
2022/01/12 15:20:28;;;;;;;19.70;12.40;;;22.00;30.30;;;;;;6261874;27;83081;-67
2022/01/12 15:23:28;;;;;;;25.05;15.02;;;22.00;30.20;;;;;;6254854;27;83157;-68
2022/01/12 15:26:29;;;;;;;21.05;13.55;;;22.10;30.60;;;;;;6257162;27;84063;-68
2022/01/12 15:29:29;;;;;;;21.25;14.07;;;22.10;30.70;;;;;;6255664;27;83286;-68
2022/01/12 15:32:30;;;;;;;22.73;13.75;;;22.20;30.60;;;;;;6251866;28;83385;-68
2022/01/12 15:35:30;;;;;;;23.60;13.93;;;22.20;30.50;;;;;;6256087;27;83516;-70
2022/01/12 15:38:31;;;;;;;23.05;13.95;;;22.20;30.70;;;;;;6252035;27;86428;-70
2022/01/12 15:41:32;;;;;;;25.50;14.43;;;22.20;30.60;;;;;;6255398;27;83161;-69
2022/01/12 15:44:33;;;;;;;20.98;12.98;;;22.30;30.70;;;;;;6253555;27;84340;-69
2022/01/12 15:47:33;;;;;;;21.67;13.38;;;22.30;30.20;;;;;;6256238;27;84246;-70
2022/01/12 15:50:34;;;;;;;27.70;15.98;;;22.30;29.80;;;;;;6256933;27;83093;-73
2022/01/12 15:53:35;;;;;;;26.42;16.52;;;22.30;29.80;;;;;;6253841;28;83949;-69
2022/01/12 15:56:35;;;;;;;24.90;15.73;;;22.30;29.50;;;;;;6254039;28;83881;-68
2022/01/12 15:59:36;;;;;;;28.38;15.65;;;22.30;29.60;;;;;;6254110;28;83224;-69
2022/01/12 16:02:36;;;;;;;23.27;15.15;;;22.30;29.50;;;;;;6252419;27;83309;-68
2022/01/12 16:05:37;;;;;;;25.30;15.88;;;22.30;29.50;;;;;;6250261;27;84835;-69
2022/01/12 16:08:38;;;;;;;26.27;16.10;;;22.40;29.50;;;;;;6252867;27;83317;-67
2022/01/12 16:11:40;;;;;;;31.55;16.45;;;22.40;29.80;;;;;;6250879;27;84438;-67
2022/01/12 16:14:41;;;;;;;23.58;13.77;;;22.40;30.40;;;;;;6247009;27;83278;-65
2022/01/12 16:17:45;;;;;;;21.70;12.32;;;22.40;31.40;;;;;;6250798;27;83271;-67
2022/01/12 16:20:46;;;;;;;16.23;10.88;;;22.30;33.10;;;;;;6248681;27;82688;-67
2022/01/12 16:23:46;;;;;;;18.17;10.80;;;22.40;34.20;;;;;;6250725;27;83180;-68
2022/01/12 16:26:48;;;;;;;18.83;10.57;;;22.40;35.00;;;;;;6255779;27;83104;-67
2022/01/12 16:29:49;;;;;;;14.88;9.85;;;22.40;35.70;;;;;;6253100;27;84070;-68
2022/01/12 16:32:49;;;;;;;15.57;8.98;;;22.40;36.30;;;;;;6254746;28;85196;-68
2022/01/12 16:35:50;;;;;;;14.93;9.48;;;22.40;37.20;;;;;;6257567;27;80499;-69
2022/01/12 16:38:50;;;;;;;15.02;9.60;;;22.40;36.90;;;;;;6256413;28;80549;-68